Αρχική σελίδα
METAR-TAF:

METAR-TAF

Αεροδρόμια :

Ντζαμένα, Τσαντ

γεωγραφικό πλάτος: 12-08N, γεωγραφικό μήκος: 015-02E, υψόμετρο: 295 μ

Παρών καιρός

Η αναφορά έγινε 1 ώρα και 22 λεπτά πριν, στις 23:00 UTC
Άνεμος 4 kt από Β
Θερμοκρασία 22°C
Υγρασία 23%
Πίεση 1012 hPa
Ορατότητα: 8000 μ

METAR: FTTJ 212300Z 35004KT 8000 NSC 22/00 Q1012 TEMPO 6000 NSW

Χρόνος: 01:22 (00:22 UTC)

Πρόγνωση Καιρού

Η αναφορά έγινε 1 ώρα και 22 λεπτά πριν, στις 23:00 UTC
Η πρόγνωση ισχύει από τις 22 στις 00 UTC έως τις 23 στις 06 UTC
Άνεμος 4 kt από Β/BΔ
Ορατότητα: 8000 μ
Καθιστάμενος
από 22 στις 07 UTC έως τις 22 στις 09 UTC
Άνεμος 10 kt από BA
Καθιστάμενος
από 22 στις 15 UTC έως τις 22 στις 17 UTC
Άνεμος 5 kt από Β/BΔ

TAF: FTTJ 212300Z 2200/2306 34004KT 8000 NSC BECMG 2207/2209 04010KT BECMG 2215/2217 34005KT

Μετεωρολογικές αναφορές και προγνώσεις για περισσότερα από 4000 αεροδρόμια (δελτία METAR και TAF).

Οι διαθέσιμοι σταθμοί απεικονίζονται στο χάρτη με κίτρινες και κόκκινες κουκκίδες.

Μετακινήστε το ποντίκι πάνω από τις κουκκίδες για να δείτε το όνομα του σταθμού.

Στη συνέχεια, κάντε κλικ για να δείτε τις μετεωρολογικές αναφορές και τις προγνώσεις καιρού.

Για να αλλάξετε το χάρτη: κάντε κλικ στα πράσινα κουμπιά με τον μαύρο σταυρό για να ζουμάρετε, στο πράσινο κουμπί με την παύλα για να αφαιρέσετε το ζουμ ή στα πράσινα βέλη για να αντιπαραβάλλετε χάρτες.


METAR-TAF: